Time;durP1;ratioP1;P1;durP2;ratioP2;P2;SDS_P1;SDS_P2;PMS_P1;PMS_P2;Temp;Humidity;BMP_temperature;BMP_pressure;BME280_temperature;BME280_humidity;BME280_pressure;Samples;Min_cycle;Max_cycle;Signal;HPM_P1;HPM_P2
2022/01/22 00:00:19;;;;;;;27.48;6.00;;;6.30;99.90;;;;;;5109367;28;20490;-71
2022/01/22 00:02:46;;;;;;;28.85;6.72;;;6.00;99.90;;;;;;5109226;28;20035;-71
2022/01/22 00:05:14;;;;;;;36.17;7.28;;;5.70;99.90;;;;;;5092436;28;20039;-71
2022/01/22 00:07:40;;;;;;;34.28;6.80;;;6.00;99.90;;;;;;5109401;28;20533;-71
2022/01/22 00:10:19;;;;;;;27.53;8.30;;;5.90;99.90;;;;;;5110649;28;20054;-70
2022/01/22 00:15:17;;;;;;;31.55;6.32;;;5.90;99.90;;;;;;5109913;28;20519;-71
2022/01/22 00:17:43;;;;;;;29.58;7.55;;;5.90;99.90;;;;;;5109797;28;20445;-71
2022/01/22 00:20:11;;;;;;;36.53;6.80;;;5.90;99.90;;;;;;5109624;28;20124;-71
2022/01/22 00:22:39;;;;;;;38.03;6.72;;;6.20;99.90;;;;;;5092981;28;20086;-71
2022/01/22 00:25:09;;;;;;;41.95;7.13;;;6.00;99.90;;;;;;5109270;28;20116;-71
2022/01/22 00:27:40;;;;;;;43.03;9.00;;;5.90;99.90;;;;;;5109315;28;20054;-71
2022/01/22 00:30:09;;;;;;;31.55;7.75;;;6.20;99.90;;;;;;5109161;28;20657;-71
2022/01/22 00:32:35;;;;;;;30.80;6.65;;;6.20;99.90;;;;;;5108897;28;20047;-71
2022/01/22 00:35:01;;;;;;;33.60;6.97;;;6.30;99.90;;;;;;5108871;28;20514;-71
2022/01/22 00:37:27;;;;;;;30.73;6.70;;;;;;;;;;5109114;28;20043;-71
2022/01/22 00:39:53;;;;;;;33.72;6.93;;;5.70;99.90;;;;;;5108735;28;20044;-71
2022/01/22 00:42:21;;;;;;;40.83;6.80;;;;;;;;;;5091931;28;20039;-71
2022/01/22 00:44:49;;;;;;;28.20;6.70;;;6.50;99.90;;;;;;5108797;28;20046;-71
2022/01/22 00:47:15;;;;;;;34.80;6.80;;;6.10;99.90;;;;;;5091782;28;20125;-71
2022/01/22 00:49:41;;;;;;;27.08;7.07;;;5.80;99.90;;;;;;5108757;28;20050;-71
2022/01/22 00:52:07;;;;;;;28.52;6.70;;;;;;;;;;5108605;28;20039;-71
2022/01/22 00:54:33;;;;;;;28.48;6.57;;;6.10;99.90;;;;;;5108901;28;20043;-71
2022/01/22 00:57:00;;;;;;;36.28;7.13;;;6.20;99.90;;;;;;5092070;28;20507;-71
2022/01/22 00:59:25;;;;;;;27.48;6.68;;;5.90;99.90;;;;;;5108949;28;20047;-71
2022/01/22 01:01:51;;;;;;;29.67;6.50;;;6.10;99.90;;;;;;5108949;28;20040;-71
2022/01/22 01:04:17;;;;;;;30.15;6.35;;;6.10;99.90;;;;;;5109257;28;20039;-71
2022/01/22 01:06:43;;;;;;;21.02;5.75;;;;;;;;;;5112602;28;20081;-71
2022/01/22 01:09:10;;;;;;;23.02;5.70;;;6.10;99.90;;;;;;5113000;28;20085;-71
2022/01/22 01:11:46;;;;;;;17.80;5.65;;;6.10;99.90;;;;;;5112365;28;20047;-71
2022/01/22 01:14:23;;;;;;;19.60;5.60;;;;;;;;;;5112321;28;20616;-71
2022/01/22 01:33:53;;;;;;;25.58;6.32;;;;;;;;;;5053356;28;20488;-72
2022/01/22 01:36:19;;;;;;;25.15;6.22;;;;;;;;;;5053419;28;20044;-71
2022/01/22 01:38:51;;;;;;;28.45;6.70;;;;;;;;;;5053584;28;20064;-71
2022/01/22 01:41:27;;;;;;;20.52;6.07;;;6.40;99.90;;;;;;5037012;28;20044;-71
2022/01/22 01:43:53;;;;;;;28.23;6.95;;;6.00;99.90;;;;;;5053317;28;20119;-71
2022/01/22 01:46:19;;;;;;;30.30;6.55;;;;;;;;;;5036971;28;20076;-71
2022/01/22 01:48:45;;;;;;;28.10;6.13;;;;;;;;;;5070003;28;20639;-71
2022/01/22 01:51:11;;;;;;;28.75;6.50;;;6.40;99.90;;;;;;5036165;28;20137;-71
2022/01/22 01:53:53;;;;;;;30.17;6.00;;;;;;;;;;5053192;28;20400;-72
2022/01/22 01:59:04;;;;;;;39.58;6.32;;;;;;;;;;5052674;28;20048;-71
2022/01/22 02:01:30;;;;;;;29.20;6.10;;;6.30;99.90;;;;;;5052894;28;20044;-71
2022/01/22 02:03:55;;;;;;;32.67;6.18;;;6.50;99.90;;;;;;5070293;28;20046;-72
2022/01/22 02:06:23;;;;;;;24.23;6.10;;;6.30;99.90;;;;;;5111613;28;20047;-72
2022/01/22 02:08:50;;;;;;;26.25;5.85;;;5.70;99.90;;;;;;5111774;28;20391;-72
2022/01/22 02:11:17;;;;;;;27.85;5.97;;;6.50;99.90;;;;;;5111367;28;20043;-71
2022/01/22 02:14:08;;;;;;;23.63;5.85;;;6.40;99.90;;;;;;5111015;28;20064;-71
2022/01/22 02:24:55;;;;;;;23.15;5.50;;;6.40;99.90;;;;;;5111342;28;20053;-71
2022/01/22 02:27:21;;;;;;;17.63;4.60;;;6.40;99.90;;;;;;5111593;28;20473;-71
2022/01/22 02:29:49;;;;;;;23.38;5.32;;;6.00;99.90;;;;;;5110894;28;20047;-71
2022/01/22 02:35:24;;;;;;;22.77;5.05;;;;;;;;;;5110967;28;20056;-71
2022/01/22 02:37:57;;;;;;;17.63;5.15;;;;;;;;;;5110930;28;20495;-71
2022/01/22 02:40:30;;;;;;;18.38;5.50;;;6.50;99.90;;;;;;5111564;28;20492;-71
2022/01/22 02:42:57;;;;;;;21.25;5.50;;;6.20;99.90;;;;;;5110785;28;20035;-72
2022/01/22 02:45:23;;;;;;;18.52;5.25;;;6.50;99.90;;;;;;5110668;28;20495;-71
2022/01/22 02:47:50;;;;;;;11.48;4.82;;;6.60;99.90;;;;;;5110822;28;20092;-71
2022/01/22 02:50:17;;;;;;;18.15;5.03;;;6.50;99.90;;;;;;5110416;28;20483;-71
2022/01/22 02:52:43;;;;;;;15.80;4.50;;;6.30;99.90;;;;;;5110603;28;20050;-72
2022/01/22 02:55:11;;;;;;;16.30;5.20;;;;;;;;;;5110218;28;20491;-71
2022/01/22 02:57:37;;;;;;;26.38;5.70;;;6.30;99.90;;;;;;5110651;28;20386;-71
2022/01/22 03:00:07;;;;;;;14.98;4.90;;;6.30;99.90;;;;;;5093528;28;20040;-71
2022/01/22 03:02:33;;;;;;;17.95;4.30;;;6.50;99.90;;;;;;5093718;28;20054;-71
2022/01/22 03:05:03;;;;;;;14.73;4.50;;;7.20;99.90;;;;;;5110633;28;20345;-71
2022/01/22 03:07:29;;;;;;;16.55;3.90;;;;;;;;;;5110509;28;20044;-71
2022/01/22 03:10:01;;;;;;;14.30;4.13;;;6.50;99.90;;;;;;5110507;28;20162;-71
2022/01/22 03:28:02;;;;;;;19.33;3.53;;;;;;;;;;5108393;28;20074;-71
2022/01/22 03:30:28;;;;;;;19.02;3.22;;;6.50;99.90;;;;;;5110242;28;20395;-72
2022/01/22 03:32:55;;;;;;;11.68;3.50;;;6.00;99.90;;;;;;5093170;28;20054;-71
2022/01/22 03:37:51;;;;;;;10.95;3.08;;;6.40;99.90;;;;;;5109917;28;20039;-71
2022/01/22 03:40:21;;;;;;;16.42;3.38;;;6.50;99.90;;;;;;5109893;28;20039;-71
2022/01/22 03:42:53;;;;;;;11.40;3.20;;;6.40;99.90;;;;;;5093524;28;20031;-71
2022/01/22 03:45:21;;;;;;;14.90;3.10;;;6.50;99.90;;;;;;5110107;28;20093;-71
2022/01/22 03:47:47;;;;;;;15.05;2.90;;;6.30;99.90;;;;;;5093493;28;20386;-71
2022/01/22 03:50:15;;;;;;;12.50;3.08;;;6.50;99.90;;;;;;5110008;28;20126;-71
2022/01/22 03:52:41;;;;;;;10.90;2.80;;;6.30;99.90;;;;;;5110231;28;20047;-71
2022/01/22 03:55:12;;;;;;;9.15;2.80;;;6.30;99.90;;;;;;5109960;28;20055;-71
2022/01/22 03:57:42;;;;;;;13.38;3.30;;;6.10;99.90;;;;;;5110742;28;20387;-71
2022/01/22 04:00:08;;;;;;;17.65;3.30;;;6.40;99.90;;;;;;5092123;28;20044;-71
2022/01/22 04:05:07;;;;;;;13.57;3.70;;;6.90;99.90;;;;;;5109127;28;20054;-71
2022/01/22 04:10:06;;;;;;;17.05;3.22;;;5.90;99.90;;;;;;5109509;28;20415;-71
2022/01/22 04:13:20;;;;;;;18.67;3.42;;;6.50;99.90;;;;;;5109385;28;20040;-71
2022/01/22 04:15:23;;;;;;;14.60;3.58;;;6.40;99.90;;;;;;5101578;28;20055;-71
2022/01/22 04:25:52;;;;;;;10.27;2.70;;;;;;;;;;5108870;28;20056;-71
2022/01/22 04:28:18;;;;;;;13.02;3.03;;;6.20;99.90;;;;;;5109025;28;20042;-71
2022/01/22 04:30:46;;;;;;;12.85;3.00;;;;;;;;;;5110540;28;20051;-71
2022/01/22 04:33:15;;;;;;;10.18;2.83;;;;;;;;;;5092740;28;20491;-71
2022/01/22 04:35:40;;;;;;;11.45;2.80;;;6.30;99.90;;;;;;5109576;28;20044;-71
2022/01/22 04:38:06;;;;;;;13.23;3.13;;;;;;;;;;5109190;28;20047;-71
2022/01/22 04:40:33;;;;;;;13.68;3.50;;;6.20;99.90;;;;;;5111300;28;20444;-72
2022/01/22 04:43:00;;;;;;;12.68;3.58;;;6.50;99.90;;;;;;5113239;28;20032;-71
2022/01/22 04:45:42;;;;;;;18.02;3.58;;;;;;;;;;5095878;28;20040;-71
2022/01/22 04:55:48;;;;;;;8.07;2.83;;;6.20;99.90;;;;;;5112947;28;20052;-71
2022/01/22 04:58:15;;;;;;;9.75;3.15;;;5.90;99.90;;;;;;5112570;28;20066;-71
2022/01/22 05:00:43;;;;;;;12.82;3.08;;;5.90;99.90;;;;;;5112481;28;20487;-71
2022/01/22 05:03:10;;;;;;;7.78;2.60;;;6.40;99.90;;;;;;5095538;28;20054;-71
2022/01/22 05:05:36;;;;;;;9.68;2.97;;;6.50;99.90;;;;;;5112728;28;20071;-71
2022/01/22 05:08:02;;;;;;;10.88;3.28;;;;;;;;;;5112628;28;20508;-71
2022/01/22 05:10:30;;;;;;;10.35;3.05;;;6.40;99.90;;;;;;5112445;28;20044;-71
2022/01/22 05:12:55;;;;;;;13.32;3.53;;;6.90;99.90;;;;;;5112466;28;20471;-71
2022/01/22 05:15:22;;;;;;;12.32;3.40;;;6.40;99.90;;;;;;5112523;28;20051;-71
2022/01/22 05:17:48;;;;;;;13.68;3.15;;;6.00;99.90;;;;;;5095885;28;20403;-71
2022/01/22 05:25:19;;;;;;;14.93;3.25;;;;;;;;;;5112224;28;20039;-71
2022/01/22 05:28:05;;;;;;;15.55;3.30;;;6.50;99.90;;;;;;5095190;28;20424;-71
2022/01/22 05:33:18;;;;;;;13.45;3.25;;;6.10;99.90;;;;;;5112546;28;20051;-71
2022/01/22 05:38:34;;;;;;;16.45;2.92;;;6.30;99.90;;;;;;5112040;28;20080;-71
2022/01/22 05:41:00;;;;;;;9.57;3.10;;;6.40;99.90;;;;;;5112155;28;20055;-71
2022/01/22 05:43:26;;;;;;;12.85;3.20;;;6.10;99.90;;;;;;5112753;28;20556;-71
2022/01/22 05:45:53;;;;;;;14.00;3.17;;;6.70;99.90;;;;;;5112089;28;20031;-71
2022/01/22 05:48:20;;;;;;;10.95;3.10;;;5.90;99.90;;;;;;5112074;28;20054;-71
2022/01/22 05:50:56;;;;;;;10.27;3.20;;;6.20;99.90;;;;;;5111194;28;20050;-70
2022/01/22 06:01:17;;;;;;;11.23;3.30;;;6.10;99.90;;;;;;5111699;28;20058;-70
2022/01/22 06:03:44;;;;;;;10.82;2.95;;;6.20;99.90;;;;;;5112025;28;20396;-71
2022/01/22 06:06:13;;;;;;;11.60;2.90;;;6.80;99.90;;;;;;5094572;28;20559;-70
2022/01/22 06:08:53;;;;;;;19.15;3.80;;;6.20;99.90;;;;;;5111597;28;20043;-70
2022/01/22 06:11:24;;;;;;;10.13;3.40;;;6.50;99.90;;;;;;5111440;28;20044;-70
2022/01/22 06:13:52;;;;;;;12.02;4.22;;;;;;;;;;5111007;28;20097;-70
2022/01/22 06:16:20;;;;;;;11.13;3.42;;;6.30;99.90;;;;;;5111076;28;20046;-70
2022/01/22 06:18:46;;;;;;;15.07;3.60;;;6.60;99.90;;;;;;5094481;28;20128;-70
2022/01/22 06:21:13;;;;;;;16.52;3.70;;;;;;;;;;5111055;28;20048;-70
2022/01/22 06:23:39;;;;;;;10.15;3.72;;;6.20;99.90;;;;;;5111180;28;20057;-70
2022/01/22 06:26:07;;;;;;;10.68;3.00;;;6.20;99.90;;;;;;5111003;28;20097;-70
2022/01/22 06:28:35;;;;;;;16.30;3.55;;;6.30;99.90;;;;;;5111163;28;20368;-70
2022/01/22 06:31:02;;;;;;;13.38;3.60;;;6.30;99.90;;;;;;5094234;28;20048;-70
2022/01/22 06:33:29;;;;;;;15.95;4.00;;;6.00;99.90;;;;;;5111349;28;20044;-70
2022/01/22 06:35:55;;;;;;;16.85;3.83;;;6.80;99.90;;;;;;5111112;28;20093;-70
2022/01/22 06:38:21;;;;;;;15.88;3.83;;;5.70;99.90;;;;;;5111701;28;20433;-71
2022/01/22 06:43:31;;;;;;;12.60;2.90;;;6.40;99.90;;;;;;5111200;28;20459;-70
2022/01/22 06:45:57;;;;;;;13.75;3.13;;;6.30;99.90;;;;;;5110767;28;20042;-70
2022/01/22 06:48:25;;;;;;;13.05;3.55;;;6.30;99.90;;;;;;5111235;28;20051;-70
2022/01/22 06:50:52;;;;;;;13.23;3.60;;;;;;;;;;5093913;28;20047;-69
2022/01/22 06:53:18;;;;;;;18.60;3.45;;;6.30;99.90;;;;;;5110881;28;20487;-69
2022/01/22 06:55:56;;;;;;;13.05;3.58;;;6.10;99.90;;;;;;5110976;28;20047;-69
2022/01/22 06:58:23;;;;;;;18.52;3.50;;;6.10;99.90;;;;;;5110915;28;20054;-69
2022/01/22 07:00:49;;;;;;;17.42;3.65;;;;;;;;;;5093527;28;20483;-69
2022/01/22 07:03:14;;;;;;;11.70;3.10;;;6.50;99.90;;;;;;5110265;28;20056;-69
2022/01/22 07:05:40;;;;;;;15.15;3.65;;;;;;;;;;5110391;28;20092;-69
2022/01/22 07:08:10;;;;;;;14.52;3.80;;;;;;;;;;5110350;28;20047;-69
2022/01/22 07:10:35;;;;;;;12.55;3.58;;;6.00;99.90;;;;;;5110155;28;20039;-70
2022/01/22 07:13:02;;;;;;;13.38;3.85;;;;;;;;;;5110281;28;20111;-70
2022/01/22 07:15:32;;;;;;;13.85;3.47;;;6.60;99.90;;;;;;5110354;28;20055;-69
2022/01/22 07:17:59;;;;;;;16.50;3.70;;;6.40;99.90;;;;;;5110340;28;20051;-69
2022/01/22 07:20:34;;;;;;;12.10;4.25;;;;;;;;;;5110354;28;20056;-69
2022/01/22 07:23:14;;;;;;;15.93;4.60;;;;;;;;;;5110692;28;20048;-69
2022/01/22 07:25:40;;;;;;;16.48;5.03;;;6.50;99.90;;;;;;5110796;28;20391;-70
2022/01/22 07:28:07;;;;;;;17.95;4.32;;;6.40;99.90;;;;;;5110452;28;20429;-69
2022/01/22 07:30:33;;;;;;;16.50;4.47;;;6.40;99.90;;;;;;5110314;28;20399;-69
2022/01/22 07:32:59;;;;;;;15.75;4.50;;;6.50;99.90;;;;;;5109690;28;20039;-69
2022/01/22 07:35:25;;;;;;;11.38;3.67;;;;;;;;;;5109775;28;20174;-69
2022/01/22 07:37:53;;;;;;;9.63;3.58;;;6.30;99.90;;;;;;5108623;28;20101;-69
2022/01/22 07:40:18;;;;;;;11.85;3.90;;;6.00;99.90;;;;;;5109413;28;20114;-69
2022/01/22 07:42:44;;;;;;;11.82;3.97;;;6.10;99.90;;;;;;5109325;28;20574;-69
2022/01/22 07:45:10;;;;;;;11.73;3.70;;;;;;;;;;5092637;28;20050;-69
2022/01/22 07:47:37;;;;;;;9.25;3.67;;;6.30;99.90;;;;;;5109550;28;20047;-69
2022/01/22 07:50:04;;;;;;;17.42;4.00;;;6.20;99.90;;;;;;5110590;28;20051;-69
2022/01/22 07:52:33;;;;;;;15.18;3.75;;;6.20;99.90;;;;;;5109254;28;20062;-69
2022/01/22 07:54:59;;;;;;;19.38;4.20;;;;;;;;;;5109167;28;20043;-69
2022/01/22 07:57:27;;;;;;;18.25;4.50;;;;;;;;;;5109138;28;20052;-69
2022/01/22 07:59:52;;;;;;;17.15;4.15;;;6.20;99.90;;;;;;5109381;28;20079;-69
2022/01/22 08:02:18;;;;;;;13.00;4.07;;;6.30;99.90;;;;;;5109593;28;20082;-69
2022/01/22 08:04:43;;;;;;;13.80;3.92;;;6.10;99.90;;;;;;5095426;27;20035;-70
2022/01/22 08:07:10;;;;;;;14.85;3.75;;;6.30;99.90;;;;;;5118323;27;20507;-70
2022/01/22 08:09:37;;;;;;;11.50;3.72;;;;;;;;;;5087143;28;20059;-71
2022/01/22 08:12:04;;;;;;;8.63;3.33;;;6.60;99.90;;;;;;5120559;28;20164;-71
2022/01/22 08:14:30;;;;;;;12.40;4.00;;;;;;;;;;5121491;27;20077;-71
2022/01/22 08:16:55;;;;;;;14.82;4.00;;;6.30;99.90;;;;;;5119975;27;20391;-71
2022/01/22 08:19:23;;;;;;;10.38;3.50;;;;;;;;;;5120252;27;20051;-70
2022/01/22 08:21:49;;;;;;;12.85;3.97;;;6.10;99.90;;;;;;5113272;28;20443;-70
2022/01/22 08:24:16;;;;;;;10.18;3.80;;;;;;;;;;5112479;28;20129;-70
2022/01/22 08:26:47;;;;;;;9.65;3.90;;;;;;;;;;5112708;28;20043;-70
2022/01/22 08:29:14;;;;;;;11.35;3.67;;;;;;;;;;5090330;28;20135;-70
2022/01/22 08:31:49;;;;;;;11.20;3.42;;;6.30;99.90;;;;;;5092436;28;20391;-71
2022/01/22 08:36:59;;;;;;;8.57;3.00;;;6.40;99.90;;;;;;5092990;28;20083;-69
2022/01/22 08:39:25;;;;;;;7.30;3.00;;;6.30;99.90;;;;;;5092968;28;20099;-69
2022/01/22 08:41:51;;;;;;;9.57;2.80;;;6.30;99.90;;;;;;5093465;28;20383;-68
2022/01/22 08:44:17;;;;;;;10.82;3.10;;;;;;;;;;5074443;28;20040;-69
2022/01/22 08:46:43;;;;;;;13.15;2.80;;;6.40;99.90;;;;;;5092473;28;20032;-69
2022/01/22 08:49:09;;;;;;;7.88;2.80;;;;;;;;;;5103547;28;20513;-69
2022/01/22 08:51:38;;;;;;;6.60;2.65;;;8.50;99.90;;;;;;5111392;28;20119;-69
2022/01/22 08:54:05;;;;;;;7.07;3.03;;;6.40;99.90;;;;;;5108278;27;20479;-69
2022/01/22 08:56:31;;;;;;;6.40;2.70;;;6.70;99.90;;;;;;5107727;28;20056;-69
2022/01/22 08:58:58;;;;;;;6.03;2.60;;;;;;;;;;5102351;27;20040;-69
2022/01/22 09:01:25;;;;;;;8.73;2.70;;;7.00;99.90;;;;;;5111552;28;20529;-69
2022/01/22 09:03:50;;;;;;;8.27;3.60;;;6.40;99.90;;;;;;5095176;28;20055;-70
2022/01/22 09:06:17;;;;;;;10.20;3.40;;;6.50;99.90;;;;;;5113005;27;20063;-69
2022/01/22 09:08:50;;;;;;;7.60;3.03;;;6.60;99.90;;;;;;5112201;28;20052;-70
2022/01/22 09:11:17;;;;;;;8.05;2.70;;;6.40;99.90;;;;;;5111425;28;20050;-70
2022/01/22 09:13:43;;;;;;;9.90;4.55;;;6.50;99.90;;;;;;5111871;28;20055;-70
2022/01/22 09:16:09;;;;;;;7.32;3.90;;;6.10;99.90;;;;;;5101199;28;20483;-70
2022/01/22 09:18:35;;;;;;;11.40;4.72;;;;;;;;;;5105824;27;20047;-70
2022/01/22 09:21:04;;;;;;;10.30;3.53;;;6.80;99.90;;;;;;5101721;28;20051;-70
2022/01/22 09:23:34;;;;;;;12.80;5.60;;;;;;;;;;5108560;28;20453;-70
2022/01/22 09:26:02;;;;;;;9.85;2.70;;;6.80;99.90;;;;;;5101475;28;20051;-70
2022/01/22 09:28:30;;;;;;;6.60;2.40;;;6.80;99.90;;;;;;5112573;28;20130;-70
2022/01/22 09:30:56;;;;;;;4.93;2.20;;;6.80;99.90;;;;;;5106368;28;20100;-70
2022/01/22 09:33:21;;;;;;;10.82;2.40;;;7.90;99.90;;;;;;5102258;28;20487;-71
2022/01/22 09:35:48;;;;;;;9.15;2.38;;;7.20;99.90;;;;;;5098133;28;20511;-70
2022/01/22 09:38:13;;;;;;;7.05;2.70;;;7.40;99.90;;;;;;5109815;28;20036;-71
2022/01/22 09:40:39;;;;;;;8.75;2.90;;;7.00;99.90;;;;;;5111696;28;20547;-70
2022/01/22 09:43:05;;;;;;;9.60;3.35;;;6.70;99.90;;;;;;5112134;28;20055;-70
2022/01/22 09:45:31;;;;;;;7.22;2.25;;;6.90;99.90;;;;;;5111673;28;20132;-71
2022/01/22 09:48:00;;;;;;;7.03;2.45;;;6.40;99.90;;;;;;5102448;28;20047;-71
2022/01/22 09:50:27;;;;;;;9.80;2.15;;;6.80;99.90;;;;;;5126216;27;20051;-71
2022/01/22 09:52:53;;;;;;;8.55;2.20;;;6.60;99.90;;;;;;5132299;27;20201;-71
2022/01/22 09:55:23;;;;;;;12.05;2.88;;;7.20;99.90;;;;;;5132080;27;20049;-71
2022/01/22 09:57:49;;;;;;;6.28;2.65;;;;;;;;;;5133392;27;20043;-70
2022/01/22 10:00:19;;;;;;;10.88;2.40;;;7.10;99.90;;;;;;5133283;27;20051;-71
2022/01/22 10:02:53;;;;;;;10.65;2.75;;;6.60;99.90;;;;;;5103069;27;20055;-71
2022/01/22 10:05:34;;;;;;;12.00;3.20;;;6.70;99.90;;;;;;5095890;27;20036;-71
2022/01/22 10:08:24;;;;;;;11.00;2.97;;;6.90;99.90;;;;;;5108706;28;20083;-71
2022/01/22 10:10:51;;;;;;;7.43;2.47;;;6.80;99.90;;;;;;5112389;28;20432;-71
2022/01/22 10:13:37;;;;;;;9.23;2.90;;;6.80;99.90;;;;;;5111448;28;20027;-71
2022/01/22 10:16:14;;;;;;;11.27;3.53;;;6.60;99.90;;;;;;5097689;28;20070;-71
2022/01/22 10:18:40;;;;;;;9.60;3.15;;;;;;;;;;5093139;27;20180;-71
2022/01/22 10:21:09;;;;;;;16.00;3.70;;;6.80;99.90;;;;;;5099744;27;20047;-71
2022/01/22 10:23:39;;;;;;;8.57;3.78;;;6.90;99.90;;;;;;5103928;28;20051;-70
2022/01/22 10:26:07;;;;;;;10.23;4.00;;;6.50;99.90;;;;;;5094613;28;20421;-71
2022/01/22 10:28:46;;;;;;;10.57;4.15;;;7.10;99.90;;;;;;5112666;28;20473;-71
2022/01/22 10:31:25;;;;;;;14.13;5.05;;;7.00;99.90;;;;;;5111656;28;20061;-71
2022/01/22 10:34:08;;;;;;;16.60;8.48;;;7.10;99.90;;;;;;5103826;28;20169;-71
2022/01/22 10:36:34;;;;;;;50.38;32.75;;;6.90;99.90;;;;;;5114724;27;20039;-71
2022/01/22 10:39:00;;;;;;;45.58;30.60;;;;;;;;;;5109002;28;20048;-70
2022/01/22 10:41:42;;;;;;;72.13;46.50;;;6.90;99.90;;;;;;5093821;28;20447;-71
2022/01/22 10:44:14;;;;;;;47.78;31.35;;;7.00;99.90;;;;;;5110470;28;20032;-70
2022/01/22 10:47:03;;;;;;;21.02;9.38;;;7.00;99.90;;;;;;5101845;27;20050;-70
2022/01/22 10:49:30;;;;;;;17.98;5.38;;;6.80;99.90;;;;;;5108834;28;20526;-71
2022/01/22 10:51:59;;;;;;;15.02;4.82;;;7.00;99.90;;;;;;5116180;27;20040;-72
2022/01/22 10:54:33;;;;;;;11.45;4.60;;;7.00;99.90;;;;;;5093408;28;20132;-71
2022/01/22 10:57:20;;;;;;;11.82;4.70;;;6.90;99.90;;;;;;5110916;28;20069;-71
2022/01/22 10:59:47;;;;;;;12.63;4.55;;;7.20;99.90;;;;;;5093347;28;20079;-71
2022/01/22 11:02:14;;;;;;;13.55;4.35;;;7.00;99.90;;;;;;5110772;28;20073;-72
2022/01/22 11:04:42;;;;;;;18.30;4.97;;;7.40;99.90;;;;;;5110836;28;20415;-71
2022/01/22 11:07:10;;;;;;;15.38;5.35;;;6.80;99.90;;;;;;5110196;28;20069;-71
2022/01/22 11:09:36;;;;;;;11.45;4.18;;;7.00;99.90;;;;;;5103989;28;20503;-72
2022/01/22 11:12:06;;;;;;;11.65;4.32;;;7.10;99.90;;;;;;5094580;28;20047;-71
2022/01/22 11:14:34;;;;;;;12.07;4.70;;;6.60;99.90;;;;;;5109722;28;20048;-71
2022/01/22 11:17:00;;;;;;;12.98;4.40;;;;;;;;;;5094822;28;20051;-71
2022/01/22 11:19:35;;;;;;;12.48;4.22;;;7.20;99.90;;;;;;5094710;28;20134;-72
2022/01/22 11:22:08;;;;;;;14.00;4.40;;;7.20;99.90;;;;;;5109193;28;20039;-72
2022/01/22 11:24:42;;;;;;;15.60;4.90;;;7.80;99.90;;;;;;5086795;28;20044;-71
2022/01/22 11:27:10;;;;;;;12.57;4.45;;;6.90;99.90;;;;;;5109864;28;20105;-71
2022/01/22 11:29:36;;;;;;;15.98;4.63;;;;;;;;;;5111027;28;20499;-71
2022/01/22 11:32:05;;;;;;;17.70;4.97;;;7.20;99.90;;;;;;5096240;27;20059;-71
2022/01/22 11:34:35;;;;;;;16.38;4.80;;;7.70;99.90;;;;;;5117016;27;20077;-71
2022/01/22 11:37:06;;;;;;;14.77;4.22;;;6.80;99.90;;;;;;5108796;28;20082;-71
2022/01/22 11:39:33;;;;;;;11.85;4.40;;;6.90;99.90;;;;;;5109302;28;20048;-71
2022/01/22 11:41:59;;;;;;;12.38;4.82;;;7.10;99.90;;;;;;5117211;27;20039;-71
2022/01/22 11:44:45;;;;;;;14.65;4.30;;;7.30;99.90;;;;;;5113400;27;20047;-72
2022/01/22 11:47:11;;;;;;;;;;;7.20;99.90;;;;;;5095192;27;20096;-71
2022/01/22 11:49:40;;;;;;;17.63;4.40;;;7.20;99.90;;;;;;5129034;27;19919;-71
2022/01/22 11:52:22;;;;;;;19.05;4.25;;;7.00;99.90;;;;;;5129269;27;20499;-71
2022/01/22 11:54:55;;;;;;;13.93;4.32;;;7.40;99.90;;;;;;5124391;27;20089;-71
2022/01/22 11:57:22;;;;;;;15.02;4.80;;;7.40;99.90;;;;;;5108529;27;20071;-71
2022/01/22 12:00:08;;;;;;;17.65;4.68;;;6.90;99.90;;;;;;5108922;28;20043;-71
2022/01/22 12:02:35;;;;;;;20.95;4.78;;;;;;;;;;5125341;27;20047;-71
2022/01/22 12:05:04;;;;;;;21.00;4.57;;;7.20;99.90;;;;;;5108925;28;20380;-71
2022/01/22 12:07:35;;;;;;;16.33;4.43;;;;;;;;;;5091584;28;20097;-71
2022/01/22 12:10:34;;;;;;;16.25;4.35;;;7.30;99.90;;;;;;5079207;27;20140;-72
2022/01/22 12:16:37;;;;;;;22.08;4.68;;;7.60;99.90;;;;;;5045445;28;20139;-71
2022/01/22 12:19:04;;;;;;;19.95;4.70;;;7.00;99.90;;;;;;5048772;28;20057;-71
2022/01/22 12:21:37;;;;;;;16.42;4.53;;;7.10;99.90;;;;;;5050356;28;20052;-71
2022/01/22 12:24:06;;;;;;;17.95;4.55;;;7.00;99.90;;;;;;5049628;28;20460;-71
2022/01/22 12:26:50;;;;;;;25.95;5.60;;;7.20;99.90;;;;;;5048885;28;20051;-71
2022/01/22 12:29:31;;;;;;;18.13;5.20;;;7.10;99.90;;;;;;5049062;28;20049;-71
2022/01/22 12:32:07;;;;;;;20.83;5.72;;;7.10;99.90;;;;;;5050029;28;20102;-71
2022/01/22 12:34:55;;;;;;;20.00;5.57;;;6.80;99.90;;;;;;5048805;28;20527;-71
2022/01/22 12:37:22;;;;;;;13.55;4.85;;;7.10;99.90;;;;;;5049164;28;20053;-71
2022/01/22 12:39:51;;;;;;;16.90;5.90;;;7.10;99.90;;;;;;5032158;28;20091;-71
2022/01/22 12:42:26;;;;;;;23.83;6.18;;;7.20;99.90;;;;;;5049079;28;20045;-71
2022/01/22 12:44:58;;;;;;;19.40;6.65;;;7.10;99.90;;;;;;5048746;28;20476;-71
2022/01/22 12:47:27;;;;;;;19.85;6.32;;;7.10;99.90;;;;;;5048787;28;20045;-71
2022/01/22 12:50:01;;;;;;;17.65;6.47;;;7.30;99.90;;;;;;5050409;28;20539;-71
2022/01/22 12:52:27;;;;;;;20.88;6.20;;;6.80;99.90;;;;;;5048603;28;20048;-71
2022/01/22 12:54:57;;;;;;;24.95;6.93;;;;;;;;;;5048792;28;20051;-71
2022/01/22 12:57:25;;;;;;;24.20;7.85;;;7.10;99.90;;;;;;5048613;28;20049;-71
2022/01/22 12:59:51;;;;;;;19.10;7.05;;;6.80;99.90;;;;;;5048255;28;20493;-71
2022/01/22 13:02:18;;;;;;;19.40;7.90;;;7.50;99.90;;;;;;5035825;28;20060;-71
2022/01/22 13:05:01;;;;;;;20.70;7.68;;;7.70;99.90;;;;;;5052795;28;20511;-71
2022/01/22 13:07:27;;;;;;;21.58;7.90;;;6.80;99.90;;;;;;5052574;28;20534;-71
2022/01/22 13:09:58;;;;;;;27.52;8.70;;;7.30;99.90;;;;;;5052020;28;20049;-71
2022/01/22 13:12:28;;;;;;;18.92;7.78;;;7.00;99.90;;;;;;5052228;28;20106;-71
2022/01/22 13:14:55;;;;;;;21.02;8.80;;;7.10;99.90;;;;;;5082475;28;20064;-71
2022/01/22 13:17:30;;;;;;;19.77;7.72;;;7.10;99.90;;;;;;5092528;28;20069;-71
2022/01/22 13:19:56;;;;;;;28.33;8.70;;;7.10;99.90;;;;;;5075355;28;20081;-71
2022/01/22 13:22:37;;;;;;;20.80;7.82;;;7.00;99.90;;;;;;5091931;28;20052;-71
2022/01/22 13:25:12;;;;;;;21.58;8.27;;;7.20;99.90;;;;;;5091929;28;20499;-71
2022/01/22 13:27:40;;;;;;;21.33;8.18;;;7.00;99.90;;;;;;5092014;28;20050;-71
2022/01/22 13:30:08;;;;;;;19.20;6.97;;;7.00;99.90;;;;;;5075070;28;20093;-71
2022/01/22 13:33:05;;;;;;;23.23;6.88;;;7.00;99.90;;;;;;5091831;28;20412;-71
2022/01/22 13:48:58;;;;;;;29.00;6.63;;;7.00;99.90;;;;;;5092246;28;20076;-71
2022/01/22 13:51:26;;;;;;;22.33;7.35;;;7.00;99.90;;;;;;5091932;28;20515;-71
2022/01/22 13:53:52;;;;;;;26.45;7.05;;;7.00;99.90;;;;;;5091573;28;20050;-71
2022/01/22 13:56:21;;;;;;;29.27;7.65;;;6.70;99.90;;;;;;5091447;28;20127;-71
2022/01/22 13:58:47;;;;;;;22.75;6.63;;;6.10;99.90;;;;;;5091717;28;20051;-71
2022/01/22 14:02:13;;;;;;;22.15;5.95;;;7.00;99.90;;;;;;5091457;28;20079;-71
2022/01/22 14:04:15;;;;;;;28.58;6.32;;;6.60;99.90;;;;;;5083109;28;20044;-71
2022/01/22 14:06:42;;;;;;;22.48;5.85;;;7.10;99.90;;;;;;5091707;28;20036;-71
2022/01/22 14:09:16;;;;;;;22.65;5.25;;;6.50;99.90;;;;;;5091786;28;20044;-71
2022/01/22 14:12:10;;;;;;;19.15;5.70;;;7.00;99.90;;;;;;5074693;28;20083;-71
2022/01/22 14:15:02;;;;;;;17.77;4.68;;;7.10;99.90;;;;;;5074551;28;20467;-71
2022/01/22 14:17:36;;;;;;;24.08;4.53;;;6.90;99.90;;;;;;5074710;28;20135;-71
2022/01/22 14:20:10;;;;;;;21.77;4.60;;;7.00;99.90;;;;;;5091206;28;20048;-72
2022/01/22 14:22:55;;;;;;;18.30;4.70;;;7.20;99.90;;;;;;5090922;28;20051;-71
2022/01/22 14:25:21;;;;;;;12.68;4.20;;;6.80;99.90;;;;;;5074419;28;20105;-71
2022/01/22 14:28:00;;;;;;;18.20;4.40;;;7.00;99.90;;;;;;5073706;28;20044;-72
2022/01/22 14:30:31;;;;;;;19.20;4.60;;;6.90;99.90;;;;;;5073917;28;20043;-72
2022/01/22 14:32:57;;;;;;;15.85;4.50;;;7.00;99.90;;;;;;5090972;28;20048;-71
2022/01/22 14:35:23;;;;;;;20.80;4.90;;;6.90;99.90;;;;;;5073937;28;20051;-71
2022/01/22 14:37:53;;;;;;;18.63;5.35;;;7.00;99.90;;;;;;5092139;28;20032;-71
2022/01/22 14:45:59;;;;;;;16.63;5.10;;;6.80;99.90;;;;;;5090203;28;20040;-71
2022/01/22 14:48:26;;;;;;;23.67;5.90;;;6.60;99.90;;;;;;5090360;28;20044;-72
2022/01/22 14:50:52;;;;;;;21.45;4.78;;;7.00;99.90;;;;;;5090090;28;20657;-71
2022/01/22 14:53:19;;;;;;;19.67;4.82;;;;;;;;;;5090006;28;20054;-72
2022/01/22 14:55:54;;;;;;;19.63;5.03;;;6.40;99.90;;;;;;5073106;28;20078;-71
2022/01/22 14:58:19;;;;;;;18.30;5.50;;;6.40;99.90;;;;;;5073435;28;20518;-71
2022/01/22 15:00:45;;;;;;;17.02;5.03;;;6.60;99.90;;;;;;5089945;28;20325;-71
2022/01/22 15:03:11;;;;;;;20.40;5.75;;;6.60;99.90;;;;;;5089894;28;20044;-71
2022/01/22 15:05:39;;;;;;;28.33;10.77;;;6.90;99.90;;;;;;5090149;28;20131;-72
2022/01/22 15:08:05;;;;;;;18.25;6.18;;;6.50;99.90;;;;;;5106703;28;20476;-71
2022/01/22 15:10:31;;;;;;;18.73;5.43;;;6.50;99.90;;;;;;5089548;28;20101;-71
2022/01/22 15:12:57;;;;;;;15.95;4.20;;;7.30;99.90;;;;;;5072980;28;20085;-71
2022/01/22 15:15:25;;;;;;;17.30;4.78;;;6.70;99.90;;;;;;5089750;28;20064;-71